Decoded Metar for KFME (FORT MEADE in MD, USA) (IATA:N/A) | Meteo·Mobile Aviation Weather
aviador You're here:

KFME Decoded Metar

FORT MEADE in MD, USA
Report Time2018-12-10 11:03:00
UTC Time2018-12-10 11:29:30
Flight Rules vfr VFR
Wind350° at 04 kt
W.Decomp.*RWY 28: 0.7 kt HW 3.9 kt RCW
W.Rank350° ranks 35
Current wind is below 350° avg. (5.3)
Visibility9999 m
Phenomena:N/A
Clouds:N/A
Expected CloudBase > 2,000 ft AGL from Temp-Dew spread
CeilingNone
Temp-2°C (ISA -17)
Dew Point-7°C (69% RH)
AAT-6.2°C
QNH1021 hPa
Density Alt-2,123 ft
Elevation151 ft
Report Wrong Elevation
Raw Report
KFME 101103Z AUTO 35004KT 10SM CLR M02/M07 A3014 RMK AO1=

Extra information for KFME:More info

Metar Taf Metar & Taf Last 4 Metars F.Rules Stats Wind Profile Meteogram Temp Stats Airport Information Weather charts Add Link Nearby VenuesMetar ALERT Operation Metar Decoded Social comments

AIRNAV info for KFME